Time;durP1;ratioP1;P1;durP2;ratioP2;P2;SDS_P1;SDS_P2;PMS_P1;PMS_P2;Temp;Humidity;BMP_temperature;BMP_pressure;BME280_temperature;BME280_humidity;BME280_pressure;Samples;Min_cycle;Max_cycle;Signal;HPM_P1;HPM_P2
2023/01/01 00:00:06;;;;;;;172.93;99.47;;;;;;;2.37;89.93;100938.16;5097749;28;20032;-76
2023/01/01 00:02:32;;;;;;;144.68;81.63;;;;;;;2.22;92.18;100935.91;5106465;28;20516;-75
2023/01/01 00:04:58;;;;;;;170.93;80.25;;;;;;;1.98;94.30;100924.88;5109212;28;20542;-75
2023/01/01 00:07:23;;;;;;;149.60;83.00;;;;;;;2.04;94.06;100926.66;5104090;28;20027;-77
2023/01/01 00:12:33;;;;;;;172.23;94.88;;;;;;;1.74;94.52;100946.97;5105599;28;20046;-76
2023/01/01 00:14:58;;;;;;;167.93;93.45;;;;;;;1.40;93.95;100942.03;5112758;28;20546;-75
2023/01/01 00:17:24;;;;;;;196.98;105.38;;;;;;;1.09;94.21;100944.00;5107765;28;20042;-74
2023/01/01 00:19:50;;;;;;;215.55;117.72;;;;;;;1.13;94.45;100944.38;5113618;27;20083;-75
2023/01/01 00:22:15;;;;;;;209.45;118.80;;;;;;;1.05;94.72;100941.94;5109579;27;20027;-74
2023/01/01 00:24:41;;;;;;;233.90;126.70;;;;;;;0.86;96.34;100944.78;5103528;28;20505;-74
2023/01/01 00:27:06;;;;;;;223.05;124.47;;;;;;;0.89;97.35;100952.56;5108358;28;21524;-71
2023/01/01 00:29:31;;;;;;;228.20;118.45;;;;;;;0.93;97.91;100950.19;5109040;28;20031;-71
2023/01/01 00:31:57;;;;;;;211.20;105.03;;;;;;;1.05;99.15;100953.81;5109385;28;20020;-76
2023/01/01 00:34:22;;;;;;;178.50;94.68;;;;;;;1.08;98.85;100945.09;5108416;28;20494;-77
2023/01/01 00:36:48;;;;;;;180.15;97.85;;;;;;;1.00;98.81;100953.66;5109959;28;20502;-78
2023/01/01 00:39:13;;;;;;;189.95;101.60;;;;;;;0.90;98.26;100951.50;5102643;28;20474;-78
2023/01/01 00:41:39;;;;;;;201.00;104.88;;;;;;;0.87;98.88;100946.47;5108815;28;20035;-77
2023/01/01 00:44:04;;;;;;;191.95;102.32;;;;;;;0.86;99.01;100952.19;5112185;28;20030;-78
2023/01/01 00:46:30;;;;;;;182.60;94.95;;;;;;;0.96;99.80;100963.50;5113117;28;20024;-77
2023/01/01 00:48:55;;;;;;;158.15;89.20;;;;;;;0.85;100.00;100959.63;5112506;28;20464;-77
2023/01/01 00:51:21;;;;;;;159.40;86.95;;;;;;;0.80;100.00;100964.97;5109858;28;20348;-78
2023/01/01 00:53:46;;;;;;;153.50;81.53;;;;;;;0.81;100.00;100961.16;5103533;28;20035;-77
2023/01/01 00:56:12;;;;;;;150.75;78.38;;;;;;;0.86;100.00;100958.56;5101068;28;20051;-76
2023/01/01 00:58:37;;;;;;;152.95;80.72;;;;;;;1.05;100.00;100958.47;5103119;28;20027;-77
2023/01/01 01:01:03;;;;;;;148.27;81.68;;;;;;;1.15;100.00;100956.00;5106236;28;20028;-77
2023/01/01 01:03:29;;;;;;;156.63;82.55;;;;;;;1.12;99.73;100945.47;5104868;28;20022;-77
2023/01/01 01:06:03;;;;;;;135.35;75.85;;;;;;;1.32;99.98;100966.34;5108854;28;20020;-77
2023/01/01 01:08:31;;;;;;;133.15;67.95;;;;;;;1.60;99.37;100956.56;5104012;28;20479;-77
2023/01/01 01:11:24;;;;;;;114.30;64.13;;;;;;;1.38;98.78;100968.16;5097625;28;20024;-77
2023/01/01 01:13:53;;;;;;;117.18;64.30;;;;;;;1.16;100.00;100962.38;5090749;28;20085;-78
2023/01/01 01:16:25;;;;;;;158.05;85.63;;;;;;;1.18;100.00;100963.78;5092171;28;20043;-77
2023/01/01 01:18:53;;;;;;;179.45;95.28;;;;;;;1.21;100.00;100968.84;5090015;28;20544;-78
2023/01/01 01:21:20;;;;;;;182.90;97.40;;;;;;;1.10;99.46;100955.88;5103207;28;20074;-78
2023/01/01 01:23:47;;;;;;;187.32;101.07;;;;;;;0.94;99.09;100971.97;5108586;28;20018;-78
2023/01/01 01:26:15;;;;;;;182.43;97.30;;;;;;;1.02;100.00;100972.75;5108486;28;20231;-77
2023/01/01 01:28:42;;;;;;;182.00;93.65;;;;;;;1.08;99.47;100966.28;5110350;28;20436;-78
2023/01/01 01:31:08;;;;;;;164.27;91.07;;;;;;;1.04;99.25;100954.06;5109776;28;20020;-77
2023/01/01 01:33:34;;;;;;;176.82;92.35;;;;;;;1.39;98.82;100956.06;5103422;28;20030;-77
2023/01/01 01:36:01;;;;;;;178.60;97.47;;;;;;;1.33;97.75;100948.75;5110967;28;20023;-77
2023/01/01 01:38:26;;;;;;;193.35;100.80;;;;;;;1.39;97.93;100936.75;5112344;28;20023;-77
2023/01/01 01:40:52;;;;;;;179.90;99.50;;;;;;;1.58;96.81;100948.53;5113593;28;20030;-77
2023/01/01 01:43:51;;;;;;;190.80;101.97;;;;;;;1.74;96.31;100951.66;5113756;28;20031;-77
2023/01/01 01:46:38;;;;;;;167.90;90.75;;;;;;;1.56;95.55;100944.31;5113707;28;20077;-77
2023/01/01 01:49:15;;;;;;;193.57;107.43;;;;;;;1.23;99.38;100941.88;5110930;28;20397;-78
2023/01/01 01:51:41;;;;;;;248.70;130.95;;;;;;;1.18;98.13;100938.16;5111939;28;20490;-77
2023/01/01 01:54:13;;;;;;;279.67;138.90;;;;;;;1.17;97.72;100944.75;5113177;28;20160;-77
2023/01/01 01:56:53;;;;;;;253.48;130.73;;;;;;;1.30;97.46;100940.94;5113133;28;20122;-78
2023/01/01 01:59:19;;;;;;;;;;;;;;;1.10;96.41;100942.94;5113541;28;20016;-77
2023/01/01 02:01:45;;;;;;;233.18;116.15;;;;;;;1.08;97.92;100930.44;5111440;28;19972;-78
2023/01/01 02:04:11;;;;;;;214.07;108.85;;;;;;;1.06;100.00;100938.13;5106566;28;20458;-78
2023/01/01 02:06:38;;;;;;;243.07;121.18;;;;;;;1.26;99.72;100941.41;5112865;28;20096;-78
2023/01/01 02:09:05;;;;;;;248.77;114.32;;;;;;;1.34;99.18;100928.38;5112565;27;20027;-77
2023/01/01 02:11:31;;;;;;;241.77;119.70;;;;;;;1.67;98.34;100941.59;5111422;28;20059;-78
2023/01/01 02:13:57;;;;;;;211.32;104.15;;;;;;;1.49;96.80;100945.28;5110960;28;20163;-78
2023/01/01 02:16:39;;;;;;;194.23;96.93;;;;;;;1.33;98.82;100934.97;5111325;28;20030;-78
2023/01/01 02:19:17;;;;;;;186.80;97.53;;;;;;;1.72;98.57;100949.16;5110449;28;20406;-77
2023/01/01 02:21:57;;;;;;;171.27;92.38;;;;;;;1.68;97.38;100942.41;5111233;28;20031;-78
2023/01/01 02:24:48;;;;;;;166.15;88.45;;;;;;;1.84;96.13;100956.59;5112485;28;20230;-77
2023/01/01 02:27:34;;;;;;;168.65;88.05;;;;;;;2.07;95.26;100948.28;5111271;28;20102;-77
2023/01/01 02:30:06;;;;;;;174.10;88.82;;;;;;;2.21;94.12;100946.09;5112849;28;20050;-76
2023/01/01 02:32:39;;;;;;;173.88;91.93;;;;;;;1.95;92.79;100939.19;5111806;28;20421;-77
2023/01/01 02:38:23;;;;;;;186.77;93.23;;;;;;;2.21;93.53;100953.56;5099134;28;20035;-77
2023/01/01 02:40:55;;;;;;;160.88;85.70;;;;;;;2.20;92.11;100947.16;5112318;27;20027;-77
2023/01/01 02:43:21;;;;;;;165.90;83.05;;;;;;;2.14;91.66;100950.91;5112281;28;20020;-77
2023/01/01 02:45:46;;;;;;;143.93;82.70;;;;;;;2.37;91.61;100943.69;5111461;28;20698;-77
2023/01/01 02:48:50;;;;;;;162.43;84.95;;;;;;;2.47;90.41;100954.09;5111022;28;20376;-76
2023/01/01 02:51:27;;;;;;;162.60;88.65;;;;;;;2.04;89.98;100961.72;5112853;28;20056;-77
2023/01/01 02:54:05;;;;;;;180.20;96.70;;;;;;;2.19;89.89;100958.47;5111149;28;20019;-77
2023/01/01 02:56:36;;;;;;;178.13;96.32;;;;;;;2.04;89.88;100967.25;5112914;28;20040;-77
2023/01/01 03:02:04;;;;;;;162.45;85.30;;;;;;;1.51;91.86;100959.66;5112121;28;20046;-77
2023/01/01 03:04:46;;;;;;;153.85;79.97;;;;;;;1.53;91.94;100952.00;5113127;28;20100;-77
2023/01/01 03:07:34;;;;;;;165.10;86.03;;;;;;;1.19;94.36;100950.88;5112210;28;20096;-77
2023/01/01 03:10:16;;;;;;;156.18;85.45;;;;;;;1.11;96.31;100949.28;5099103;28;20129;-77
2023/01/01 03:13:22;;;;;;;160.63;89.20;;;;;;;1.15;96.23;100944.97;5110423;28;20482;-78
2023/01/01 03:16:09;;;;;;;156.05;82.15;;;;;;;1.50;95.20;100943.34;5105863;28;20043;-77
2023/01/01 03:19:09;;;;;;;151.80;81.13;;;;;;;1.13;94.76;100949.88;5111719;28;20224;-78
2023/01/01 03:21:39;;;;;;;154.10;80.20;;;;;;;0.92;97.64;100951.28;5111764;28;20103;-78
2023/01/01 03:24:06;;;;;;;156.07;84.60;;;;;;;0.79;98.62;100947.63;5111772;28;20031;-78
2023/01/01 03:26:34;;;;;;;185.43;95.47;;;;;;;0.75;100.00;100940.06;5109482;28;20019;-78
2023/01/01 03:29:03;;;;;;;166.98;83.25;;;;;;;0.67;100.00;100928.28;5111227;28;20080;-78
2023/01/01 03:31:30;;;;;;;201.15;104.50;;;;;;;0.62;100.00;100939.16;5112410;28;20035;-77
2023/01/01 03:34:03;;;;;;;203.82;112.00;;;;;;;0.55;100.00;100941.16;5110618;28;20027;-79
2023/01/01 03:36:36;;;;;;;183.93;95.72;;;;;;;0.73;100.00;100936.72;5110715;28;20515;-77
2023/01/01 03:39:10;;;;;;;158.70;87.65;;;;;;;0.91;99.65;100947.66;5112074;28;20019;-77
2023/01/01 03:41:43;;;;;;;131.73;71.78;;;;;;;1.08;98.76;100953.34;5110816;28;20398;-78
2023/01/01 03:44:24;;;;;;;129.50;69.90;;;;;;;1.20;98.03;100942.34;5111574;28;20016;-77
2023/01/01 03:46:49;;;;;;;134.60;69.40;;;;;;;1.17;96.57;100947.50;5111983;28;20038;-78
2023/01/01 03:49:16;;;;;;;138.88;71.20;;;;;;;0.79;98.95;100953.13;5114674;28;20023;-77
2023/01/01 03:51:50;;;;;;;138.00;72.78;;;;;;;0.94;98.84;100958.22;5114807;28;20020;-78
2023/01/01 03:54:57;;;;;;;144.45;75.72;;;;;;;1.20;98.19;100966.31;5115842;28;20027;-78
2023/01/01 03:57:42;;;;;;;151.05;81.95;;;;;;;1.09;96.93;100967.97;5102710;28;20567;-77
2023/01/01 04:00:15;;;;;;;155.30;79.75;;;;;;;0.90;96.12;100959.75;5115791;28;20057;-77
2023/01/01 04:03:01;;;;;;;150.68;80.30;;;;;;;1.16;96.03;100959.63;5115223;28;20054;-77
2023/01/01 04:05:29;;;;;;;149.70;80.38;;;;;;;0.71;95.36;100961.72;5115270;28;20030;-78
2023/01/01 04:07:56;;;;;;;131.60;71.50;;;;;;;0.72;98.49;100968.91;5114650;28;20080;-78
2023/01/01 04:10:23;;;;;;;136.60;74.15;;;;;;;0.90;98.14;100958.91;5114701;28;20030;-77
2023/01/01 04:12:55;;;;;;;144.30;74.22;;;;;;;0.66;98.36;100965.16;5115543;27;20023;-77
2023/01/01 04:15:24;;;;;;;161.45;82.88;;;;;;;0.65;98.78;100959.88;5115439;28;20807;-77
2023/01/01 04:17:50;;;;;;;165.75;84.72;;;;;;;0.62;97.83;100965.84;5115354;28;20058;-78
2023/01/01 04:20:17;;;;;;;147.18;77.78;;;;;;;0.68;96.82;100957.50;5116165;28;20100;-78
2023/01/01 04:22:43;;;;;;;145.98;75.53;;;;;;;0.68;97.00;100952.00;5114819;28;20024;-78
2023/01/01 04:25:09;;;;;;;144.65;75.13;;;;;;;0.58;97.73;100961.91;5114348;28;20027;-78
2023/01/01 04:27:36;;;;;;;149.95;81.38;;;;;;;0.25;99.20;100959.31;5114538;28;20036;-79
2023/01/01 04:30:03;;;;;;;145.50;76.70;;;;;;;0.41;100.00;100962.50;5113865;28;20417;-77
2023/01/01 04:32:29;;;;;;;134.77;72.22;;;;;;;0.56;99.84;100967.63;5115472;28;20023;-77
2023/01/01 04:34:55;;;;;;;132.90;73.72;;;;;;;0.74;98.26;100972.25;5114071;28;20031;-78
2023/01/01 04:37:20;;;;;;;136.55;72.10;;;;;;;0.93;97.60;100959.28;5114069;28;20482;-77
2023/01/01 04:39:45;;;;;;;137.02;72.53;;;;;;;1.07;96.80;100959.94;5115538;28;20441;-78
2023/01/01 04:42:11;;;;;;;120.03;65.20;;;;;;;1.24;95.76;100965.63;5114305;28;20173;-77
2023/01/01 04:44:36;;;;;;;128.30;69.80;;;;;;;1.19;94.82;100961.88;5116640;28;20028;-77
2023/01/01 04:47:03;;;;;;;141.63;68.10;;;;;;;1.31;93.92;100961.91;5115755;28;20023;-77
2023/01/01 04:49:28;;;;;;;129.77;70.13;;;;;;;0.49;93.64;100961.38;5117215;28;20024;-77
2023/01/01 04:51:54;;;;;;;133.85;69.28;;;;;;;0.16;95.79;100962.59;5114016;28;20031;-78
2023/01/01 04:54:19;;;;;;;133.40;71.47;;;;;;;0.66;95.45;100967.06;5115489;28;20024;-78
2023/01/01 04:56:44;;;;;;;136.82;69.95;;;;;;;0.85;94.04;100967.91;5114548;28;20472;-77
2023/01/01 04:59:10;;;;;;;122.13;67.20;;;;;;;0.87;93.13;100970.41;5113296;28;20020;-78
2023/01/01 05:01:35;;;;;;;133.73;68.97;;;;;;;0.55;92.72;100963.19;5114489;28;20050;-77
2023/01/01 05:04:01;;;;;;;123.30;67.22;;;;;;;-0.02;94.00;100965.13;5116327;28;20026;-78
2023/01/01 05:06:27;;;;;;;131.60;66.40;;;;;;;0.54;94.38;100973.38;5115727;28;20019;-77
2023/01/01 05:08:55;;;;;;;134.48;66.93;;;;;;;0.67;92.68;100977.84;5115265;28;20085;-77
2023/01/01 05:11:25;;;;;;;117.25;64.68;;;;;;;0.35;93.95;100983.53;5103322;28;20106;-77
2023/01/01 05:13:54;;;;;;;125.28;63.35;;;;;;;0.63;93.33;100979.41;5096158;28;20514;-78
2023/01/01 05:16:23;;;;;;;135.55;72.78;;;;;;;0.17;94.41;100970.63;5095278;28;20024;-78
2023/01/01 05:18:49;;;;;;;121.88;64.20;;;;;;;0.27;95.91;100986.63;5094862;28;20078;-76
2023/01/01 05:21:17;;;;;;;126.00;65.80;;;;;;;0.30;95.05;100980.66;5094939;28;20102;-78
2023/01/01 05:23:43;;;;;;;133.20;64.80;;;;;;;0.26;94.14;100995.94;5095525;28;20016;-78
2023/01/01 05:26:19;;;;;;;119.13;66.72;;;;;;;0.13;93.82;100995.03;5109088;28;20538;-77
2023/01/01 05:28:46;;;;;;;126.20;63.78;;;;;;;-0.25;95.47;100990.50;5114170;28;20019;-78
2023/01/01 05:31:14;;;;;;;119.43;65.22;;;;;;;0.06;95.70;100985.97;5115083;28;20079;-78
2023/01/01 05:33:41;;;;;;;144.52;74.32;;;;;;;-0.22;96.44;100989.22;5111559;28;20028;-78
2023/01/01 05:36:09;;;;;;;157.35;81.25;;;;;;;-0.10;98.01;100992.91;5113192;28;20023;-78
2023/01/01 05:38:35;;;;;;;150.60;80.47;;;;;;;0.14;97.73;100987.59;5113316;28;20061;-78
2023/01/01 05:41:06;;;;;;;159.32;84.97;;;;;;;0.01;97.54;100990.47;5114646;28;20020;-78
2023/01/01 05:43:32;;;;;;;166.50;87.93;;;;;;;-0.04;98.28;100983.75;5115054;28;20016;-78
2023/01/01 05:46:03;;;;;;;171.85;88.25;;;;;;;0.07;100.00;101004.16;5113618;28;20383;-78
2023/01/01 05:48:29;;;;;;;170.07;86.35;;;;;;;-0.04;100.00;100994.75;5112252;28;20019;-80
2023/01/01 05:51:01;;;;;;;174.15;92.93;;;;;;;0.27;100.00;101001.19;5109264;28;20080;-78
2023/01/01 05:53:28;;;;;;;178.00;91.32;;;;;;;0.31;100.00;100992.50;5112758;28;20020;-79
2023/01/01 05:55:54;;;;;;;179.55;91.18;;;;;;;0.66;100.00;101000.13;5112375;28;20532;-77
2023/01/01 05:58:20;;;;;;;174.85;91.45;;;;;;;0.87;100.00;101003.47;5114722;28;20023;-78
2023/01/01 06:00:45;;;;;;;171.77;90.68;;;;;;;1.07;100.00;100993.00;5113113;28;20019;-77
2023/01/01 06:03:11;;;;;;;166.23;87.50;;;;;;;1.02;98.36;100984.59;5114512;28;20182;-77
2023/01/01 06:05:36;;;;;;;178.30;93.65;;;;;;;0.80;96.84;101004.41;5113485;28;20516;-77
2023/01/01 06:08:01;;;;;;;157.30;86.57;;;;;;;0.79;96.07;100994.47;5114734;28;20031;-78
2023/01/01 06:10:27;;;;;;;152.20;83.13;;;;;;;1.11;95.67;100996.16;5114332;28;20023;-77
2023/01/01 06:12:57;;;;;;;200.70;106.55;;;;;;;0.92;94.06;100989.84;5114463;28;20031;-77
2023/01/01 06:15:22;;;;;;;222.98;115.35;;;;;;;0.94;93.27;100993.19;5114298;28;20028;-77
2023/01/01 06:17:48;;;;;;;206.48;100.40;;;;;;;1.00;92.80;101000.53;5114101;28;20047;-77
2023/01/01 06:20:14;;;;;;;149.45;76.53;;;;;;;0.99;93.08;100998.84;5113515;28;20031;-78
2023/01/01 06:22:39;;;;;;;180.02;91.85;;;;;;;1.04;95.11;101009.16;5113654;28;20019;-77
2023/01/01 06:25:05;;;;;;;187.38;100.68;;;;;;;0.94;96.32;100999.53;5114333;28;20092;-77
2023/01/01 06:27:30;;;;;;;175.95;91.15;;;;;;;0.92;96.90;101000.88;5112497;28;20102;-77
2023/01/01 06:29:56;;;;;;;162.02;84.75;;;;;;;1.03;97.23;101002.84;5113953;28;20027;-77
2023/01/01 06:32:22;;;;;;;152.18;82.25;;;;;;;1.12;96.76;100995.91;5112505;28;20020;-78
2023/01/01 06:34:47;;;;;;;184.80;102.30;;;;;;;1.25;96.52;100994.88;5114064;28;20529;-77
2023/01/01 06:37:13;;;;;;;189.88;104.82;;;;;;;1.21;96.61;100995.56;5110643;28;20028;-78
2023/01/01 06:39:38;;;;;;;187.82;100.63;;;;;;;1.38;96.24;100999.31;5112905;28;20028;-78
2023/01/01 06:42:04;;;;;;;172.15;91.40;;;;;;;1.58;95.31;101013.91;5113013;28;20065;-78
2023/01/01 06:44:29;;;;;;;159.23;87.80;;;;;;;1.69;94.35;101015.84;5112915;28;20031;-78
2023/01/01 06:46:55;;;;;;;153.27;79.38;;;;;;;1.61;92.86;101019.75;5107946;28;20024;-77
2023/01/01 06:49:20;;;;;;;149.98;83.45;;;;;;;1.78;92.57;101010.81;5113463;28;20502;-77
2023/01/01 06:51:46;;;;;;;150.75;86.50;;;;;;;1.78;91.96;101019.91;5113444;28;20100;-77
2023/01/01 06:54:11;;;;;;;152.57;87.85;;;;;;;1.67;91.15;101018.81;5112541;28;20543;-78
2023/01/01 06:56:38;;;;;;;161.90;87.07;;;;;;;1.96;91.62;101026.41;5100560;28;20086;-76
2023/01/01 06:59:04;;;;;;;158.43;84.30;;;;;;;2.26;91.06;101019.91;5104281;28;20402;-73
2023/01/01 07:01:32;;;;;;;147.15;81.32;;;;;;;2.42;89.64;101029.38;5102827;28;20042;-74
2023/01/01 07:04:00;;;;;;;152.35;85.93;;;;;;;2.63;89.10;101027.09;5098801;28;20028;-77
2023/01/01 07:06:27;;;;;;;159.75;88.57;;;;;;;2.71;87.89;101029.44;5105084;28;20698;-72
2023/01/01 07:08:53;;;;;;;157.10;87.80;;;;;;;2.77;87.22;101030.41;5097691;28;20024;-74
2023/01/01 07:11:19;;;;;;;160.05;90.68;;;;;;;2.89;86.91;101022.91;5101791;28;20030;-75
2023/01/01 07:13:45;;;;;;;131.93;69.47;;;;;;;3.00;86.44;101023.13;5101138;28;20043;-73
2023/01/01 07:16:11;;;;;;;124.28;71.22;;;;;;;2.99;87.12;101033.34;5103646;28;20028;-75
2023/01/01 07:18:37;;;;;;;131.38;73.47;;;;;;;3.09;86.73;101032.72;5106087;28;20538;-70
2023/01/01 07:21:05;;;;;;;121.05;73.40;;;;;;;3.22;86.58;101026.88;5103970;28;20068;-70
2023/01/01 07:23:33;;;;;;;126.28;66.80;;;;;;;3.27;86.51;101025.31;5107528;28;20761;-75
2023/01/01 07:25:59;;;;;;;123.88;70.03;;;;;;;3.40;86.10;101022.22;5110287;28;20671;-70
2023/01/01 07:28:25;;;;;;;127.38;69.95;;;;;;;3.66;85.64;101025.44;5106775;28;20051;-74
2023/01/01 07:30:52;;;;;;;117.20;68.47;;;;;;;3.78;84.63;101028.97;5105596;28;20482;-74
2023/01/01 07:33:19;;;;;;;125.57;74.72;;;;;;;3.93;84.37;101019.25;5106491;28;20088;-70
2023/01/01 07:35:45;;;;;;;116.47;68.15;;;;;;;3.95;83.33;101021.75;5109214;28;20798;-72
2023/01/01 07:38:11;;;;;;;111.88;64.05;;;;;;;4.08;83.63;101019.47;5106086;28;20063;-73
2023/01/01 07:40:37;;;;;;;111.75;60.80;;;;;;;4.23;82.75;101023.59;5108040;28;20115;-72
2023/01/01 07:43:02;;;;;;;99.03;57.70;;;;;;;4.20;82.86;101036.00;5104600;28;20024;-71
2023/01/01 07:45:28;;;;;;;95.97;53.72;;;;;;;4.16;83.54;101040.38;5101280;28;20106;-74
2023/01/01 07:47:55;;;;;;;99.30;56.15;;;;;;;4.27;83.65;101046.06;5103215;28;20121;-72
2023/01/01 07:50:22;;;;;;;103.60;56.65;;;;;;;4.31;84.13;101045.28;5106521;28;20122;-72
2023/01/01 07:52:48;;;;;;;114.80;63.78;;;;;;;4.20;84.58;101040.69;5109771;28;20042;-75
2023/01/01 07:55:16;;;;;;;105.65;61.28;;;;;;;4.52;84.51;101053.91;5099197;28;20450;-76
2023/01/01 07:57:42;;;;;;;98.10;55.72;;;;;;;4.58;84.77;101047.31;5110209;28;20073;-70
2023/01/01 08:00:09;;;;;;;110.90;61.72;;;;;;;4.87;84.03;101058.25;5108736;28;20042;-74
2023/01/01 08:02:35;;;;;;;113.65;64.13;;;;;;;4.77;85.42;101055.34;5108466;28;20415;-73
2023/01/01 08:05:00;;;;;;;109.82;61.70;;;;;;;4.94;85.62;101057.22;5106992;28;20139;-72
2023/01/01 08:07:26;;;;;;;97.88;57.60;;;;;;;4.86;86.39;101059.34;5106307;28;20488;-75
2023/01/01 08:09:51;;;;;;;88.90;53.08;;;;;;;4.97;85.46;101053.94;5109821;28;20228;-76
2023/01/01 08:12:17;;;;;;;110.78;66.82;;;;;;;5.42;84.58;101050.00;5105587;28;20043;-72
2023/01/01 08:14:42;;;;;;;88.82;53.35;;;;;;;5.53;84.32;101059.28;5104734;28;20024;-73
2023/01/01 08:17:08;;;;;;;81.03;44.53;;;;;;;5.58;85.29;101058.50;5105184;28;20019;-71
2023/01/01 08:19:33;;;;;;;92.95;50.88;;;;;;;5.29;87.27;101064.28;5108422;28;20078;-78
2023/01/01 08:21:59;;;;;;;75.30;43.55;;;;;;;5.67;87.51;101061.63;5100187;28;20039;-72
2023/01/01 08:24:24;;;;;;;55.25;32.47;;;;;;;5.91;85.87;101067.66;5099329;28;20084;-73
2023/01/01 08:26:50;;;;;;;39.40;26.20;;;;;;;5.62;86.15;101070.75;5103987;28;20023;-74
2023/01/01 08:29:16;;;;;;;51.67;31.30;;;;;;;5.85;85.96;101069.59;5110878;28;20053;-80
2023/01/01 08:31:42;;;;;;;55.72;30.88;;;;;;;6.08;86.89;101059.22;5106875;28;20020;-79
2023/01/01 08:34:07;;;;;;;56.33;31.42;;;;;;;6.39;87.25;101062.22;5109347;28;20032;-79
2023/01/01 08:36:33;;;;;;;54.33;32.45;;;;;;;6.59;84.98;101060.69;5106140;28;20483;-74
2023/01/01 08:38:59;;;;;;;73.20;37.97;;;;;;;6.78;84.57;101071.34;5107581;28;20054;-70
2023/01/01 08:41:24;;;;;;;64.60;40.05;;;;;;;7.07;83.09;101062.59;5106713;28;20498;-71
2023/01/01 08:43:50;;;;;;;86.05;47.95;;;;;;;7.28;82.11;101066.28;5108725;28;20023;-69
2023/01/01 08:46:15;;;;;;;73.57;42.05;;;;;;;7.54;80.68;101060.75;5103783;28;20027;-73
2023/01/01 08:48:41;;;;;;;56.47;36.10;;;;;;;7.56;79.15;101053.81;5107426;28;20016;-73
2023/01/01 08:51:09;;;;;;;57.40;33.63;;;;;;;7.35;80.54;101047.34;5107372;28;20022;-74
2023/01/01 08:53:35;;;;;;;54.38;34.40;;;;;;;7.45;79.96;101043.78;5108420;28;20342;-73
2023/01/01 08:56:09;;;;;;;50.33;31.92;;;;;;;7.72;79.43;101045.47;5110878;28;20039;-74
2023/01/01 08:58:36;;;;;;;58.47;34.60;;;;;;;7.56;78.34;101044.59;5107711;28;20034;-74
2023/01/01 09:01:02;;;;;;;55.95;33.47;;;;;;;7.73;78.62;101045.22;5106911;28;20031;-74
2023/01/01 09:03:28;;;;;;;63.03;34.90;;;;;;;7.91;78.11;101034.63;5109054;28;20038;-74
2023/01/01 09:05:53;;;;;;;50.28;32.30;;;;;;;8.04;76.87;101035.16;5108620;28;20027;-74
2023/01/01 09:08:19;;;;;;;49.85;31.13;;;;;;;8.31;76.51;101025.66;5110466;28;20057;-72
2023/01/01 09:10:45;;;;;;;56.72;35.58;;;;;;;8.43;76.15;101028.97;5111938;28;20473;-72
2023/01/01 09:13:13;;;;;;;56.17;32.45;;;;;;;8.31;75.27;101022.84;5110880;28;20023;-71
2023/01/01 09:15:41;;;;;;;48.85;28.60;;;;;;;8.46;74.32;101010.84;5108571;28;20406;-74
2023/01/01 09:18:07;;;;;;;48.65;29.50;;;;;;;8.91;72.07;101019.34;5103895;28;20068;-73
2023/01/01 09:20:32;;;;;;;56.10;34.35;;;;;;;9.01;71.42;101013.72;5110471;28;20019;-73
2023/01/01 09:22:58;;;;;;;51.47;29.63;;;;;;;9.22;70.05;101008.03;5112241;28;20095;-74
2023/01/01 09:25:23;;;;;;;50.65;32.08;;;;;;;8.89;70.63;101002.06;5109969;28;20197;-74
2023/01/01 09:27:56;;;;;;;52.22;32.10;;;;;;;9.26;69.48;100998.81;5105578;28;20032;-70
2023/01/01 09:30:22;;;;;;;45.65;27.65;;;;;;;8.91;69.57;100995.09;5099509;28;20379;-73
2023/01/01 09:32:47;;;;;;;48.40;28.98;;;;;;;9.35;69.11;100995.38;5099877;28;20042;-72
2023/01/01 09:35:13;;;;;;;56.13;32.05;;;;;;;9.54;68.21;100989.97;5107445;28;20080;-72
2023/01/01 09:37:38;;;;;;;128.07;57.65;;;;;;;9.80;66.91;100981.38;5096900;28;20538;-74
2023/01/01 09:40:04;;;;;;;73.25;36.17;;;;;;;9.92;66.08;100978.19;5106020;28;20028;-73
2023/01/01 09:42:42;;;;;;;66.22;31.13;;;;;;;9.86;66.64;100973.78;5095674;28;20020;-75
2023/01/01 09:45:24;;;;;;;46.80;28.00;;;;;;;10.11;65.05;100969.88;5092882;28;20165;-71
2023/01/01 09:47:58;;;;;;;45.50;28.15;;;;;;;10.22;63.87;100970.63;5104127;28;20091;-71
2023/01/01 09:50:29;;;;;;;46.65;28.85;;;;;;;10.11;64.47;100967.09;5109025;28;20142;-71
2023/01/01 09:52:58;;;;;;;55.53;30.77;;;;;;;10.36;63.79;100963.19;5109532;28;20039;-71
2023/01/01 09:55:43;;;;;;;108.18;52.13;;;;;;;10.69;63.21;100965.34;5109438;28;20268;-72
2023/01/01 09:58:10;;;;;;;180.05;86.38;;;;;;;10.97;61.52;100953.53;5110962;28;20035;-73
2023/01/01 10:00:38;;;;;;;55.58;31.42;;;;;;;11.09;60.88;100962.31;5110567;28;20027;-71
2023/01/01 10:03:26;;;;;;;42.47;26.45;;;;;;;10.81;60.89;100956.53;5107090;27;20529;-73
2023/01/01 10:06:18;;;;;;;42.50;25.42;;;;;;;11.03;60.01;100961.53;5101533;28;20410;-73
2023/01/01 10:08:59;;;;;;;514.25;254.95;;;;;;;11.32;59.83;100963.34;5100937;28;20088;-74
2023/01/01 10:11:36;;;;;;;;;;;;;;;11.49;59.05;100947.97;5094468;28;20035;-72
2023/01/01 10:14:33;;;;;;;78.28;44.72;;;;;;;11.63;58.67;100945.22;5104960;28;20370;-73
2023/01/01 10:17:03;;;;;;;44.55;27.75;;;;;;;11.70;58.40;100940.06;5105448;28;20028;-73
2023/01/01 10:19:44;;;;;;;45.53;26.15;;;;;;;11.84;57.67;100944.88;5108615;28;20090;-72
2023/01/01 10:22:34;;;;;;;40.67;23.70;;;;;;;11.82;59.34;100942.34;5102299;28;20027;-75
2023/01/01 10:25:16;;;;;;;41.90;25.67;;;;;;;11.94;59.09;100930.66;5106085;28;20146;-74
2023/01/01 10:28:14;;;;;;;102.55;26.92;;;;;;;12.13;58.26;100936.22;5094766;28;20024;-75
2023/01/01 10:30:40;;;;;;;42.65;24.23;;;;;;;12.20;57.06;100938.63;5086513;28;20066;-77
2023/01/01 10:33:11;;;;;;;33.85;21.88;;;;;;;12.34;57.32;100930.22;5097214;28;20024;-72
2023/01/01 10:35:42;;;;;;;103.20;58.38;;;;;;;12.40;56.71;100928.97;5100957;28;20056;-73
2023/01/01 10:38:23;;;;;;;30.55;20.23;;;;;;;12.31;56.87;100919.63;5108894;28;20035;-73
2023/01/01 10:40:59;;;;;;;313.17;152.90;;;;;;;12.53;55.36;100924.50;5105351;28;20175;-72
2023/01/01 10:43:24;;;;;;;37.17;21.95;;;;;;;12.48;54.00;100913.38;5095075;28;20024;-72
2023/01/01 10:45:52;;;;;;;31.48;19.17;;;;;;;12.43;54.17;100910.69;5108701;28;20084;-73
2023/01/01 10:48:21;;;;;;;27.95;16.52;;;;;;;12.31;53.01;100908.41;5098905;28;20027;-72
2023/01/01 10:51:13;;;;;;;26.45;16.75;;;;;;;12.35;54.91;100898.22;5100167;28;20028;-72
2023/01/01 10:53:54;;;;;;;25.10;17.42;;;;;;;12.44;55.67;100907.56;5098842;28;20529;-73
2023/01/01 10:56:22;;;;;;;32.78;19.40;;;;;;;12.40;55.37;100906.53;5100465;28;20063;-72
2023/01/01 10:58:47;;;;;;;26.80;17.83;;;;;;;12.42;56.33;100901.41;5090671;28;20111;-73
2023/01/01 11:01:16;;;;;;;33.05;18.30;;;;;;;12.63;55.34;100892.56;5101671;28;20493;-73
2023/01/01 11:04:19;;;;;;;43.05;27.90;;;;;;;12.85;55.72;100894.63;5098815;28;20441;-73
2023/01/01 11:06:46;;;;;;;37.97;25.48;;;;;;;12.99;55.63;100894.56;5093311;28;20126;-71
2023/01/01 11:09:21;;;;;;;58.95;33.67;;;;;;;13.13;55.09;100893.69;5097630;28;20097;-73
2023/01/01 11:11:55;;;;;;;54.03;34.97;;;;;;;13.12;55.16;100892.03;5100347;28;20036;-71
2023/01/01 11:14:40;;;;;;;59.05;34.42;;;;;;;13.06;54.97;100883.75;5101480;28;20470;-70
2023/01/01 11:17:07;;;;;;;54.97;33.65;;;;;;;13.11;54.88;100890.38;5103076;28;20402;-71
2023/01/01 11:19:39;;;;;;;61.50;35.15;;;;;;;13.20;54.00;100889.28;5099412;28;20031;-70
2023/01/01 11:22:05;;;;;;;52.53;31.45;;;;;;;13.09;54.19;100881.44;5098217;28;20560;-71
2023/01/01 11:24:33;;;;;;;53.78;34.78;;;;;;;13.07;54.79;100870.50;5092672;28;20020;-71
2023/01/01 11:27:22;;;;;;;51.10;31.58;;;;;;;13.04;55.11;100876.75;5101871;28;20030;-72
2023/01/01 11:29:51;;;;;;;46.75;30.63;;;;;;;13.03;54.82;100870.34;5092857;28;20024;-72